createdAt,value
2018-03-11T00:00:57.288Z,0
2018-03-11T00:02:06.205Z,0
2018-03-11T00:03:15.930Z,0
2018-03-11T00:04:25.920Z,0
2018-03-11T00:05:35.640Z,0
2018-03-11T00:06:45.628Z,0
2018-03-11T00:07:55.396Z,0
2018-03-11T00:09:04.849Z,0
2018-03-11T00:10:14.845Z,0
2018-03-11T00:11:24.885Z,0
2018-03-11T00:12:34.872Z,0
2018-03-11T00:13:44.865Z,0
2018-03-11T00:14:54.851Z,0
2018-03-11T00:16:04.589Z,0
2018-03-11T00:17:14.581Z,0
2018-03-11T00:18:24.569Z,0
2018-03-11T00:19:34.570Z,0
2018-03-11T00:20:44.557Z,0
2018-03-11T00:21:54.540Z,0
2018-03-11T00:23:03.990Z,0
2018-03-11T00:24:13.715Z,0
2018-03-11T00:25:23.704Z,0
2018-03-11T00:26:33.696Z,0
2018-03-11T00:27:43.690Z,0
2018-03-11T00:28:53.683Z,0
2018-03-11T00:30:03.183Z,0
2018-03-11T00:31:12.916Z,0
2018-03-11T00:32:22.902Z,0
2018-03-11T00:33:32.884Z,0
2018-03-11T00:34:42.918Z,0
2018-03-11T00:35:52.689Z,0
2018-03-11T00:37:02.409Z,0
2018-03-11T00:38:12.396Z,0
2018-03-11T00:39:22.384Z,0
2018-03-11T00:40:32.112Z,0
2018-03-11T00:41:42.095Z,0
2018-03-11T00:42:52.076Z,0
2018-03-11T00:44:01.814Z,0
2018-03-11T00:45:11.531Z,0
2018-03-11T00:46:21.530Z,0
2018-03-11T00:47:31.523Z,0
2018-03-11T00:48:41.512Z,0
2018-03-11T00:49:51.501Z,0
2018-03-11T00:51:00.948Z,0
2018-03-11T00:52:10.666Z,0
2018-03-11T00:53:20.389Z,0
2018-03-11T00:54:30.373Z,0
2018-03-11T00:55:39.824Z,0
2018-03-11T00:56:49.807Z,0
2018-03-11T00:57:59.805Z,0
2018-03-11T00:59:09.794Z,0
2018-03-11T01:00:19.782Z,0
2018-03-11T01:01:29.767Z,0
2018-03-11T01:02:39.760Z,0
2018-03-11T01:03:49.753Z,0
2018-03-11T01:04:59.736Z,0
2018-03-11T01:06:09.192Z,0
2018-03-11T01:07:18.911Z,0
2018-03-11T01:08:28.904Z,0
2018-03-11T01:09:38.623Z,0
2018-03-11T01:10:48.613Z,0
2018-03-11T01:11:58.336Z,0
2018-03-11T01:13:08.322Z,0
2018-03-11T01:14:18.043Z,0
2018-03-11T01:15:28.041Z,0
2018-03-11T01:16:37.241Z,0
2018-03-11T01:17:46.961Z,0
2018-03-11T01:18:56.953Z,0
2018-03-11T01:20:06.943Z,0
2018-03-11T01:21:16.677Z,0
2018-03-11T01:22:26.668Z,0
2018-03-11T01:23:36.386Z,0
2018-03-11T01:24:46.112Z,0
2018-03-11T01:25:56.101Z,0
2018-03-11T01:27:05.820Z,0
2018-03-11T01:28:15.545Z,0
2018-03-11T01:29:25.529Z,0
2018-03-11T01:30:34.980Z,0
2018-03-11T01:31:44.970Z,0
2018-03-11T01:32:54.959Z,0
2018-03-11T01:34:04.949Z,0
2018-03-11T01:35:14.672Z,0
2018-03-11T01:36:24.658Z,0
2018-03-11T01:37:34.384Z,0
2018-03-11T01:38:44.378Z,0
2018-03-11T01:39:54.091Z,0
2018-03-11T01:41:03.544Z,0
2018-03-11T01:42:13.270Z,0
2018-03-11T01:43:22.770Z,0
2018-03-11T01:44:32.491Z,0
2018-03-11T01:45:42.482Z,0
2018-03-11T01:46:52.473Z,0
2018-03-11T01:48:02.199Z,0
2018-03-11T01:49:11.654Z,0
2018-03-11T01:50:21.644Z,0
2018-03-11T01:51:31.626Z,0
2018-03-11T01:52:41.348Z,0
2018-03-11T01:53:51.064Z,0
2018-03-11T01:55:00.779Z,0
2018-03-11T01:56:10.504Z,0
2018-03-11T01:57:20.497Z,0
2018-03-11T01:58:30.710Z,0
2018-03-11T01:59:40.381Z,0
2018-03-11T02:00:50.380Z,0
2018-03-11T02:02:00.370Z,0
2018-03-11T02:03:09.823Z,0
2018-03-11T02:04:19.899Z,0
2018-03-11T02:05:29.354Z,0
2018-03-11T02:06:39.083Z,0
2018-03-11T02:07:49.088Z,0
2018-03-11T02:08:59.083Z,0
2018-03-11T02:10:08.799Z,0
2018-03-11T02:11:18.520Z,0
2018-03-11T02:12:28.512Z,0
2018-03-11T02:13:38.232Z,0
2018-03-11T02:14:47.419Z,0
2018-03-11T02:15:57.401Z,0
2018-03-11T02:17:06.920Z,0
2018-03-11T02:18:16.371Z,0
2018-03-11T02:19:26.357Z,0
2018-03-11T02:20:36.352Z,0
2018-03-11T02:21:46.078Z,0
2018-03-11T02:22:56.066Z,0
2018-03-11T02:24:06.057Z,0
2018-03-11T02:25:16.045Z,0
2018-03-11T02:26:25.770Z,0
2018-03-11T02:27:35.768Z,0
2018-03-11T02:28:45.813Z,0
2018-03-11T02:29:55.803Z,0
2018-03-11T02:31:05.794Z,0
2018-03-11T02:32:14.715Z,0
2018-03-11T02:33:24.729Z,0
2018-03-11T02:34:34.187Z,0
2018-03-11T02:35:44.182Z,0
2018-03-11T02:36:54.176Z,0
2018-03-11T02:38:04.205Z,0
2018-03-11T02:39:13.669Z,0
2018-03-11T02:40:23.676Z,0
2018-03-11T02:41:33.678Z,0
2018-03-11T02:42:43.411Z,0
2018-03-11T02:43:53.396Z,0
2018-03-11T02:45:03.453Z,0
2018-03-11T02:46:13.191Z,0
2018-03-11T02:47:23.185Z,0
2018-03-11T02:48:33.190Z,0
2018-03-11T02:49:42.379Z,0
2018-03-11T02:50:52.425Z,0
2018-03-11T02:52:02.427Z,0
2018-03-11T02:53:11.619Z,0
2018-03-11T02:54:21.609Z,0
2018-03-11T02:55:31.599Z,0
2018-03-11T02:56:41.596Z,0
2018-03-11T02:57:51.586Z,0
2018-03-11T02:59:01.039Z,0
2018-03-11T03:00:11.045Z,0
2018-03-11T03:01:21.030Z,0
2018-03-11T03:02:34.109Z,0
2018-03-11T03:03:44.101Z,0
2018-03-11T03:04:54.095Z,0
2018-03-11T03:06:03.554Z,0
2018-03-11T03:07:13.550Z,0
2018-03-11T03:08:23.541Z,0
2018-03-11T03:09:33.521Z,0
2018-03-11T03:10:42.978Z,0
2018-03-11T03:11:52.979Z,0
2018-03-11T03:13:02.715Z,0
2018-03-11T03:14:12.173Z,0
2018-03-11T03:15:22.208Z,0
2018-03-11T03:16:32.191Z,0
2018-03-11T03:17:42.175Z,0
2018-03-11T03:18:51.905Z,0
2018-03-11T03:20:01.994Z,0
2018-03-11T03:21:11.990Z,0
2018-03-11T03:22:22.004Z,0
2018-03-11T03:23:31.464Z,0
2018-03-11T03:24:41.192Z,0
2018-03-11T03:25:51.012Z,0
2018-03-11T03:27:00.996Z,0
2018-03-11T03:28:10.987Z,0
2018-03-11T03:29:20.984Z,0
2018-03-11T03:30:30.444Z,0
2018-03-11T03:31:40.508Z,0
2018-03-11T03:32:50.504Z,0
2018-03-11T03:34:00.227Z,0
2018-03-11T03:35:10.217Z,0
2018-03-11T03:36:20.206Z,0
2018-03-11T03:37:30.544Z,0
2018-03-11T03:38:40.104Z,0
2018-03-11T03:39:49.833Z,0
2018-03-11T03:40:59.286Z,0
2018-03-11T03:42:08.743Z,0
2018-03-11T03:43:18.209Z,0
2018-03-11T03:44:27.938Z,0
2018-03-11T03:45:37.668Z,0
2018-03-11T03:46:47.391Z,0
2018-03-11T03:47:57.380Z,0
2018-03-11T03:49:07.109Z,0
2018-03-11T03:50:17.099Z,0
2018-03-11T03:51:26.564Z,0
2018-03-11T03:52:36.336Z,0
2018-03-11T03:53:46.328Z,0
2018-03-11T03:54:55.783Z,0
2018-03-11T03:56:05.775Z,0
2018-03-11T03:57:15.505Z,0
2018-03-11T03:58:24.959Z,0
2018-03-11T03:59:34.679Z,0
2018-03-11T04:03:31.700Z,0
2018-03-11T04:04:41.692Z,0
2018-03-11T04:05:51.684Z,0
2018-03-11T04:07:01.411Z,0
2018-03-11T04:08:11.135Z,0
2018-03-11T04:09:20.851Z,0
2018-03-11T04:10:30.841Z,0
2018-03-11T04:11:40.565Z,0
2018-03-11T04:12:50.557Z,0
2018-03-11T04:14:00.012Z,0
2018-03-11T04:15:11.746Z,0
2018-03-11T04:16:21.727Z,0
2018-03-11T04:17:30.917Z,0
2018-03-11T04:18:40.636Z,0
2018-03-11T04:19:50.635Z,0
2018-03-11T04:20:59.611Z,0
2018-03-11T04:22:09.330Z,0
2018-03-11T04:23:19.334Z,0
2018-03-11T04:24:28.528Z,0
2018-03-11T04:25:38.250Z,0
2018-03-11T04:26:47.976Z,0
2018-03-11T04:27:57.753Z,0
2018-03-11T04:29:07.750Z,0
2018-03-11T04:30:17.482Z,0
2018-03-11T04:31:26.935Z,0
2018-03-11T04:32:37.025Z,0
2018-03-11T04:33:46.750Z,0
2018-03-11T04:34:56.738Z,0
2018-03-11T04:36:06.460Z,0
2018-03-11T04:37:16.446Z,0
2018-03-11T04:38:26.521Z,0
2018-03-11T04:39:36.245Z,0
2018-03-11T04:40:46.242Z,0
2018-03-11T04:41:56.238Z,0
2018-03-11T04:43:05.980Z,0
2018-03-11T04:44:15.807Z,0
2018-03-11T04:45:25.530Z,0
2018-03-11T04:46:34.985Z,0
2018-03-11T04:47:44.173Z,0
2018-03-11T04:48:53.907Z,0
2018-03-11T04:50:03.924Z,0
2018-03-11T04:51:13.385Z,0
2018-03-11T04:52:23.107Z,0
2018-03-11T04:53:33.106Z,0
2018-03-11T04:54:42.571Z,0
2018-03-11T04:55:52.558Z,0
2018-03-11T04:57:02.547Z,0
2018-03-11T04:58:12.003Z,0
2018-03-11T04:59:21.985Z,0
2018-03-11T05:00:31.714Z,0
2018-03-11T05:01:41.701Z,0
2018-03-11T05:02:51.427Z,0
2018-03-11T05:04:01.417Z,0
2018-03-11T05:05:11.445Z,0
2018-03-11T05:06:21.431Z,0
2018-03-11T05:07:30.882Z,0
2018-03-11T05:08:40.604Z,0
2018-03-11T05:09:50.061Z,0
2018-03-11T05:10:59.787Z,0
2018-03-11T05:12:09.245Z,0
2018-03-11T05:13:19.289Z,0
2018-03-11T05:14:28.474Z,0
2018-03-11T05:15:38.456Z,0
2018-03-11T05:16:48.181Z,0
2018-03-11T05:17:58.180Z,0
2018-03-11T05:19:08.170Z,0
2018-03-11T05:20:18.163Z,0
2018-03-11T05:21:28.158Z,0
2018-03-11T05:22:37.882Z,0
2018-03-11T05:23:47.603Z,0
2018-03-11T05:24:57.585Z,0
2018-03-11T05:26:07.316Z,0
2018-03-11T05:27:17.041Z,0
2018-03-11T05:28:27.066Z,0
2018-03-11T05:29:37.059Z,0
2018-03-11T05:30:46.244Z,0
2018-03-11T05:31:56.240Z,0
2018-03-11T05:33:06.233Z,0
2018-03-11T05:34:16.227Z,0
2018-03-11T05:35:26.221Z,5
2018-03-11T05:36:36.206Z,5
2018-03-11T05:37:45.932Z,0
2018-03-11T05:38:55.929Z,5
2018-03-11T05:40:05.659Z,5
2018-03-11T05:41:15.400Z,5
2018-03-11T05:42:25.397Z,5
2018-03-11T05:43:35.388Z,5
2018-03-11T05:44:45.383Z,5
2018-03-11T05:45:55.370Z,5
2018-03-11T05:47:05.104Z,5
2018-03-11T05:48:14.565Z,10
2018-03-11T05:49:24.555Z,10
2018-03-11T05:50:34.279Z,10
2018-03-11T05:51:44.274Z,10
2018-03-11T05:52:54.271Z,10
2018-03-11T05:54:04.323Z,15
2018-03-11T05:55:13.774Z,15
2018-03-11T05:56:23.494Z,15
2018-03-11T05:57:33.491Z,15
2018-03-11T05:58:43.214Z,20
2018-03-11T05:59:52.933Z,20
2018-03-11T06:01:02.680Z,20
2018-03-11T06:02:12.401Z,20
2018-03-11T06:03:22.392Z,20
2018-03-11T06:04:32.144Z,25
2018-03-11T06:05:41.862Z,25
2018-03-11T06:06:51.319Z,25
2018-03-11T06:08:01.039Z,25
2018-03-11T06:09:11.027Z,30
2018-03-11T06:10:21.013Z,30
2018-03-11T06:11:30.999Z,35
2018-03-11T06:12:40.988Z,35
2018-03-11T06:13:50.976Z,40
2018-03-11T06:15:00.967Z,40
2018-03-11T06:16:10.958Z,40
2018-03-11T06:17:20.782Z,45
2018-03-11T06:18:30.236Z,45
2018-03-11T06:19:39.690Z,45
2018-03-11T06:20:49.417Z,50
2018-03-11T06:21:58.872Z,50
2018-03-11T06:23:08.332Z,55
2018-03-11T06:24:18.320Z,55
2018-03-11T06:25:28.315Z,60
2018-03-11T06:26:38.473Z,60
2018-03-11T06:27:47.939Z,60
2018-03-11T06:28:57.662Z,65
2018-03-11T06:30:07.382Z,70
2018-03-11T06:31:16.832Z,70
2018-03-11T06:32:26.853Z,75
2018-03-11T06:33:36.843Z,80
2018-03-11T06:34:46.565Z,80
2018-03-11T06:35:56.550Z,80
2018-03-11T06:37:06.540Z,85
2018-03-11T06:38:16.543Z,90
2018-03-11T06:39:26.533Z,95
2018-03-11T06:40:36.360Z,100
2018-03-11T06:41:46.353Z,105
2018-03-11T06:42:56.339Z,115
2018-03-11T06:44:06.062Z,120
2018-03-11T06:45:15.252Z,125
2018-03-11T06:46:24.970Z,125
2018-03-11T06:47:34.959Z,130
2018-03-11T06:48:44.951Z,130
2018-03-11T06:49:54.940Z,130
2018-03-11T06:51:04.938Z,135
2018-03-11T06:52:15.041Z,135
2018-03-11T06:53:25.044Z,140
2018-03-11T06:54:34.769Z,140
2018-03-11T06:55:44.488Z,140
2018-03-11T06:56:54.212Z,145
2018-03-11T06:58:03.664Z,145
2018-03-11T06:59:13.660Z,150
2018-03-11T07:00:22.854Z,155
2018-03-11T07:01:32.847Z,155
2018-03-11T07:02:42.834Z,155
2018-03-11T07:03:52.064Z,160
2018-03-11T07:05:02.061Z,160
2018-03-11T07:06:11.521Z,160
2018-03-11T07:07:21.246Z,165
2018-03-11T07:08:30.974Z,170
2018-03-11T07:09:40.966Z,170
2018-03-11T07:10:50.480Z,170
2018-03-11T07:11:59.884Z,175
2018-03-11T07:13:09.884Z,175
2018-03-11T07:14:19.872Z,180
2018-03-11T07:15:29.865Z,180
2018-03-11T07:16:39.594Z,185
2018-03-11T07:17:49.586Z,185
2018-03-11T07:18:59.608Z,190
2018-03-11T07:20:09.608Z,190
2018-03-11T07:21:19.604Z,190
2018-03-11T07:22:29.601Z,195
2018-03-11T07:23:39.598Z,200
2018-03-11T07:24:49.319Z,205
2018-03-11T07:25:58.775Z,210
2018-03-11T07:27:07.965Z,215
2018-03-11T07:28:17.690Z,225
2018-03-11T07:29:27.412Z,230
2018-03-11T07:30:37.401Z,245
2018-03-11T07:31:47.389Z,260
2018-03-11T07:32:57.384Z,270
2018-03-11T07:34:07.377Z,285
2018-03-11T07:35:16.844Z,285
2018-03-11T07:36:26.574Z,290
2018-03-11T07:37:36.569Z,290
2018-03-11T07:38:46.557Z,285
2018-03-11T07:39:56.550Z,270
2018-03-11T07:41:06.320Z,265
2018-03-11T07:42:16.320Z,255
2018-03-11T07:43:26.309Z,250
2018-03-11T07:44:35.771Z,245
2018-03-11T07:45:45.775Z,245
2018-03-11T07:46:55.496Z,245
2018-03-11T07:48:05.266Z,245
2018-03-11T07:49:14.761Z,245
2018-03-11T07:50:24.752Z,240
2018-03-11T07:51:34.480Z,245
2018-03-11T07:52:44.466Z,250
2018-03-11T07:53:54.451Z,255
2018-03-11T07:55:04.443Z,270
2018-03-11T07:56:14.440Z,290
2018-03-11T07:57:24.432Z,310
2018-03-11T07:58:34.433Z,320
2018-03-11T07:59:44.159Z,325
2018-03-11T08:00:54.195Z,330
2018-03-11T08:02:04.181Z,350
2018-03-11T08:03:13.636Z,365
2018-03-11T08:04:22.827Z,380
2018-03-11T08:05:32.285Z,390
2018-03-11T08:06:42.013Z,395
2018-03-11T08:07:51.468Z,400
2018-03-11T08:09:00.933Z,410
2018-03-11T08:10:10.679Z,425
2018-03-11T08:11:20.406Z,430
2018-03-11T08:12:29.328Z,425
2018-03-11T08:13:39.320Z,430
2018-03-11T08:14:49.328Z,460
2018-03-11T08:15:59.358Z,475
2018-03-11T08:17:09.374Z,450
2018-03-11T08:18:19.379Z,415
2018-03-11T08:19:29.373Z,390
2018-03-11T08:20:39.368Z,390
2018-03-11T08:21:49.097Z,405
2018-03-11T08:22:58.286Z,410
2018-03-11T08:24:08.016Z,425
2018-03-11T08:25:17.794Z,415
2018-03-11T08:26:27.791Z,425
2018-03-11T08:27:37.796Z,465
2018-03-11T08:28:46.987Z,500
2018-03-11T08:29:56.983Z,530
2018-03-11T08:31:06.986Z,540
2018-03-11T08:32:16.979Z,535
2018-03-11T08:33:26.711Z,560
2018-03-11T08:34:36.709Z,570
2018-03-11T08:35:46.699Z,580
2018-03-11T08:36:56.429Z,585
2018-03-11T08:38:06.426Z,590
2018-03-11T08:39:15.886Z,590
2018-03-11T08:40:25.881Z,585
2018-03-11T08:41:35.609Z,560
2018-03-11T08:42:45.616Z,530
2018-03-11T08:43:55.614Z,535
2018-03-11T08:45:04.859Z,555
2018-03-11T08:46:14.586Z,555
2018-03-11T08:47:24.580Z,550
2018-03-11T08:48:34.649Z,565
2018-03-11T08:49:44.657Z,570
2018-03-11T08:50:54.647Z,575
2018-03-11T08:52:04.366Z,560
2018-03-11T08:53:13.560Z,545
2018-03-11T08:54:23.299Z,545
2018-03-11T08:55:33.033Z,540
2018-03-11T08:56:43.077Z,520
2018-03-11T08:57:52.536Z,515
2018-03-11T08:59:02.535Z,525
2018-03-11T09:00:12.377Z,535
2018-03-11T09:01:22.378Z,525
2018-03-11T09:02:32.371Z,510
2018-03-11T09:03:42.369Z,495
2018-03-11T09:04:52.368Z,475
2018-03-11T09:06:02.364Z,465
2018-03-11T09:07:12.362Z,465
2018-03-11T09:08:22.360Z,475
2018-03-11T09:09:32.085Z,480
2018-03-11T09:10:41.973Z,490
2018-03-11T09:11:52.073Z,500
2018-03-11T09:13:02.067Z,505
2018-03-11T09:14:12.073Z,510
2018-03-11T09:15:21.796Z,510
2018-03-11T09:16:31.261Z,510
2018-03-11T09:17:40.822Z,515
2018-03-11T09:18:50.608Z,520
2018-03-11T09:20:00.072Z,520
2018-03-11T09:21:09.577Z,520
2018-03-11T09:22:19.583Z,520
2018-03-11T09:23:29.312Z,520
2018-03-11T09:24:39.309Z,525
2018-03-11T09:25:49.306Z,530
2018-03-11T09:26:59.305Z,540
2018-03-11T09:28:09.032Z,555
2018-03-11T09:29:18.807Z,575
2018-03-11T09:30:28.816Z,595
2018-03-11T09:31:38.817Z,610
2018-03-11T09:32:48.551Z,625
2018-03-11T09:33:58.544Z,640
2018-03-11T09:35:08.546Z,650
2018-03-11T09:36:18.546Z,660
2018-03-11T09:37:28.545Z,670
2018-03-11T09:38:38.540Z,685
2018-03-11T09:39:48.537Z,705
2018-03-11T09:40:57.733Z,720
2018-03-11T09:42:07.195Z,735
2018-03-11T09:43:16.929Z,730
2018-03-11T09:44:26.664Z,745
2018-03-11T09:45:35.328Z,755
2018-03-11T09:46:45.326Z,750
2018-03-11T09:47:55.326Z,750
2018-03-11T09:49:05.326Z,735
2018-03-11T09:50:15.319Z,730
2018-03-11T09:51:25.052Z,715
2018-03-11T09:52:34.569Z,710
2018-03-11T09:53:44.572Z,700
2018-03-11T09:54:54.307Z,695
2018-03-11T09:56:04.322Z,695
2018-03-11T09:57:13.519Z,710
2018-03-11T09:58:23.515Z,715
2018-03-11T09:59:33.246Z,725
2018-03-11T10:00:42.975Z,720
2018-03-11T10:01:52.980Z,715
2018-03-11T10:03:03.015Z,715
2018-03-11T10:04:12.871Z,720
2018-03-11T10:05:22.066Z,725
2018-03-11T10:06:31.857Z,740
2018-03-11T10:07:41.604Z,750
2018-03-11T10:08:50.811Z,755
2018-03-11T10:10:00.808Z,740
2018-03-11T10:11:10.812Z,720
2018-03-11T10:12:20.279Z,690
2018-03-11T10:13:30.402Z,670
2018-03-11T10:14:39.844Z,660
2018-03-11T10:15:49.845Z,650
2018-03-11T10:16:59.841Z,635
2018-03-11T10:18:09.571Z,625
2018-03-11T10:19:19.300Z,615
2018-03-11T10:20:29.308Z,620
2018-03-11T10:21:39.306Z,625
2018-03-11T10:22:49.041Z,625
2018-03-11T10:23:58.771Z,615
2018-03-11T10:25:08.504Z,615
2018-03-11T10:26:17.971Z,615
2018-03-11T10:27:27.984Z,610
2018-03-11T10:28:37.722Z,610
2018-03-11T10:29:47.724Z,620
2018-03-11T10:30:57.469Z,620
2018-03-11T10:32:07.479Z,620
2018-03-11T10:33:17.486Z,615
2018-03-11T10:34:27.215Z,605
2018-03-11T10:35:36.686Z,580
2018-03-11T10:36:46.418Z,555
2018-03-11T10:37:56.253Z,535
2018-03-11T10:39:05.992Z,510
2018-03-11T10:40:15.732Z,490
2018-03-11T10:41:25.728Z,475
2018-03-11T10:42:35.458Z,465
2018-03-11T10:43:45.188Z,460
2018-03-11T10:44:55.182Z,455
2018-03-11T10:46:04.377Z,450
2018-03-11T10:47:14.112Z,445
2018-03-11T10:48:24.114Z,435
2018-03-11T10:49:33.846Z,430
2018-03-11T10:50:43.665Z,430
2018-03-11T10:51:53.676Z,425
2018-03-11T10:53:03.674Z,425
2018-03-11T10:54:13.140Z,430
2018-03-11T10:55:23.139Z,435
2018-03-11T10:56:32.865Z,445
2018-03-11T10:57:42.599Z,455
2018-03-11T10:58:52.326Z,470
2018-03-11T11:00:02.323Z,480
2018-03-11T11:01:11.784Z,490
2018-03-11T11:02:21.656Z,495
2018-03-11T11:03:31.651Z,505
2018-03-11T11:04:41.649Z,515
2018-03-11T11:05:51.646Z,530
2018-03-11T11:07:01.642Z,540
2018-03-11T11:08:11.639Z,555
2018-03-11T11:09:21.094Z,565
2018-03-11T11:10:30.815Z,565
2018-03-11T11:11:40.549Z,570
2018-03-11T11:12:49.745Z,580
2018-03-11T11:13:59.743Z,590
2018-03-11T11:15:09.210Z,610
2018-03-11T11:16:19.209Z,630
2018-03-11T11:17:28.931Z,650
2018-03-11T11:18:38.926Z,660
2018-03-11T11:19:48.922Z,675
2018-03-11T11:20:58.924Z,675
2018-03-11T11:22:08.921Z,680
2018-03-11T11:23:18.917Z,685
2018-03-11T11:24:28.914Z,690
2018-03-11T11:25:39.077Z,695
2018-03-11T11:26:48.818Z,700
2018-03-11T11:27:58.811Z,705
2018-03-11T11:29:08.815Z,715
2018-03-11T11:30:18.548Z,730
2018-03-11T11:31:28.277Z,745
2018-03-11T11:32:38.014Z,740
2018-03-11T11:33:48.013Z,750
2018-03-11T11:34:58.008Z,775
2018-03-11T11:36:07.785Z,800
2018-03-11T11:37:17.780Z,815
2018-03-11T11:38:27.784Z,815
2018-03-11T11:39:37.776Z,805
2018-03-11T11:40:47.244Z,785
2018-03-11T11:41:56.976Z,755
2018-03-11T11:43:07.095Z,745
2018-03-11T11:44:17.101Z,715
2018-03-11T11:45:26.564Z,700
2018-03-11T11:46:36.571Z,670
2018-03-11T11:47:46.045Z,645
2018-03-11T11:48:56.346Z,630
2018-03-11T11:50:06.403Z,605
2018-03-11T11:51:16.401Z,585
2018-03-11T11:52:25.868Z,575
2018-03-11T11:53:35.872Z,565
2018-03-11T11:54:45.654Z,565
2018-03-11T11:55:55.381Z,560
2018-03-11T11:57:05.377Z,560
2018-03-11T11:58:14.710Z,560
2018-03-11T11:59:23.914Z,550
2018-03-11T12:00:33.747Z,540
2018-03-11T12:01:42.942Z,535
2018-03-11T12:02:52.405Z,545
2018-03-11T12:04:02.409Z,545
2018-03-11T12:05:12.140Z,550
2018-03-11T12:06:22.190Z,555
2018-03-11T12:07:31.918Z,550
2018-03-11T12:08:41.919Z,535
2018-03-11T12:09:51.655Z,520
2018-03-11T12:11:01.650Z,505
2018-03-11T12:12:11.493Z,495
2018-03-11T12:13:21.495Z,475
2018-03-11T12:14:31.228Z,460
2018-03-11T12:15:40.958Z,450
2018-03-11T12:16:50.424Z,455
2018-03-11T12:18:00.162Z,460
2018-03-11T12:19:10.159Z,475
2018-03-11T12:20:19.882Z,495
2018-03-11T12:21:29.622Z,520
2018-03-11T12:22:39.423Z,545
2018-03-11T12:23:49.433Z,555
2018-03-11T12:24:58.898Z,550
2018-03-11T12:26:08.094Z,540
2018-03-11T12:27:18.087Z,535
2018-03-11T12:28:28.080Z,545
2018-03-11T12:29:37.811Z,565
2018-03-11T12:30:47.816Z,580
2018-03-11T12:31:57.282Z,600
2018-03-11T12:33:06.750Z,605
2018-03-11T12:34:16.774Z,595
2018-03-11T12:35:26.766Z,570
2018-03-11T12:36:36.760Z,545
2018-03-11T12:37:45.961Z,510
2018-03-11T12:38:55.696Z,490
2018-03-11T12:40:05.695Z,470
2018-03-11T12:41:15.495Z,455
2018-03-11T12:42:25.497Z,450
2018-03-11T12:43:35.230Z,445
2018-03-11T12:44:44.977Z,445
2018-03-11T12:45:54.975Z,450
2018-03-11T12:47:04.741Z,460
2018-03-11T12:48:14.474Z,470
2018-03-11T12:49:23.939Z,485
2018-03-11T12:50:33.929Z,500
2018-03-11T12:51:43.395Z,510
2018-03-11T12:52:53.122Z,510
2018-03-11T12:54:02.850Z,500
2018-03-11T12:55:12.582Z,490
2018-03-11T12:56:22.045Z,475
2018-03-11T12:57:32.043Z,465
2018-03-11T12:58:41.765Z,455
2018-03-11T12:59:51.762Z,450
2018-03-11T13:01:01.223Z,440
2018-03-11T13:02:10.949Z,435
2018-03-11T13:03:20.681Z,435
2018-03-11T13:04:29.877Z,435
2018-03-11T13:05:39.615Z,435
2018-03-11T13:06:49.354Z,440
2018-03-11T13:07:59.088Z,445
2018-03-11T13:09:08.819Z,455
2018-03-11T13:10:18.550Z,455
2018-03-11T13:11:28.026Z,460
2018-03-11T13:12:38.026Z,460
2018-03-11T13:13:47.765Z,460
2018-03-11T13:14:57.761Z,455
2018-03-11T13:16:07.757Z,455
2018-03-11T13:17:17.490Z,455
2018-03-11T13:18:27.486Z,460
2018-03-11T13:19:37.686Z,460
2018-03-11T13:20:47.422Z,465
2018-03-11T13:21:57.151Z,465
2018-03-11T13:23:06.614Z,470
2018-03-11T13:24:16.819Z,480
2018-03-11T13:25:26.290Z,490
2018-03-11T13:26:36.021Z,490
2018-03-11T13:27:46.014Z,485
2018-03-11T13:28:56.010Z,485
2018-03-11T13:30:06.021Z,485
2018-03-11T13:31:15.848Z,475
2018-03-11T13:32:25.574Z,470
2018-03-11T13:33:35.304Z,470
2018-03-11T13:34:45.041Z,480
2018-03-11T13:35:54.767Z,480
2018-03-11T13:37:04.764Z,475
2018-03-11T13:38:14.561Z,475
2018-03-11T13:39:24.295Z,480
2018-03-11T13:40:34.296Z,480
2018-03-11T13:41:44.028Z,480
2018-03-11T13:42:54.026Z,480
2018-03-11T13:44:04.021Z,480
2018-03-11T13:45:13.754Z,485
2018-03-11T13:46:23.483Z,480
2018-03-11T13:47:33.216Z,480
2018-03-11T13:48:42.945Z,475
2018-03-11T13:49:52.412Z,470
2018-03-11T13:51:02.411Z,460
2018-03-11T13:52:11.878Z,450
2018-03-11T13:53:21.879Z,440
2018-03-11T13:54:31.336Z,445
2018-03-11T13:55:41.143Z,465
2018-03-11T13:56:50.879Z,485
2018-03-11T13:58:00.867Z,515
2018-03-11T13:59:10.873Z,530
2018-03-11T14:00:20.888Z,535
2018-03-11T14:01:30.884Z,535
2018-03-11T14:02:40.625Z,530
2018-03-11T14:03:50.098Z,510
2018-03-11T14:05:00.105Z,490
2018-03-11T14:06:09.929Z,470
2018-03-11T14:07:19.939Z,465
2018-03-11T14:08:29.400Z,460
2018-03-11T14:09:39.129Z,465
2018-03-11T14:10:49.132Z,460
2018-03-11T14:11:58.595Z,450
2018-03-11T14:13:08.594Z,445
2018-03-11T14:14:18.103Z,445
2018-03-11T14:15:27.853Z,460
2018-03-11T14:16:37.851Z,495
2018-03-11T14:17:47.897Z,525
2018-03-11T14:18:58.045Z,555
2018-03-11T14:20:07.824Z,570
2018-03-11T14:21:17.821Z,555
2018-03-11T14:22:27.854Z,495
2018-03-11T14:23:37.589Z,425
2018-03-11T14:24:47.317Z,370
2018-03-11T14:25:57.060Z,330
2018-03-11T14:27:06.798Z,315
2018-03-11T14:28:16.002Z,300
2018-03-11T14:29:25.997Z,285
2018-03-11T14:30:35.723Z,280
2018-03-11T14:31:45.185Z,270
2018-03-11T14:32:54.645Z,265
2018-03-11T14:34:04.642Z,260
2018-03-11T14:35:14.381Z,260
2018-03-11T14:36:24.103Z,265
2018-03-11T14:37:33.832Z,275
2018-03-11T14:38:43.568Z,290
2018-03-11T14:39:53.299Z,305
2018-03-11T14:41:02.762Z,320
2018-03-11T14:42:11.742Z,325
2018-03-11T14:43:21.744Z,330
2018-03-11T14:44:31.490Z,345
2018-03-11T14:45:41.261Z,355
2018-03-11T14:46:50.994Z,365
2018-03-11T14:48:00.990Z,365
2018-03-11T14:49:10.988Z,355
2018-03-11T14:50:20.987Z,350
2018-03-11T14:51:31.013Z,335
2018-03-11T14:52:40.484Z,325
2018-03-11T14:53:49.954Z,330
2018-03-11T14:54:59.958Z,330
2018-03-11T14:56:09.151Z,320
2018-03-11T14:57:19.155Z,325
2018-03-11T14:58:28.895Z,330
2018-03-11T14:59:38.909Z,325
2018-03-11T15:00:48.377Z,315
2018-03-11T15:01:58.108Z,300
2018-03-11T15:03:07.840Z,295
2018-03-11T15:04:17.577Z,295
2018-03-11T15:05:27.574Z,290
2018-03-11T15:06:37.407Z,285
2018-03-11T15:07:46.879Z,265
2018-03-11T15:08:56.346Z,245
2018-03-11T15:10:06.353Z,230
2018-03-11T15:11:16.230Z,215
2018-03-11T15:12:26.336Z,200
2018-03-11T15:13:36.060Z,195
2018-03-11T15:14:46.061Z,190
2018-03-11T15:15:56.058Z,190
2018-03-11T15:17:05.786Z,195
2018-03-11T15:18:15.788Z,205
2018-03-11T15:19:25.787Z,215
2018-03-11T15:20:35.515Z,220
2018-03-11T15:21:45.520Z,225
2018-03-11T15:22:55.248Z,220
2018-03-11T15:24:04.710Z,215
2018-03-11T15:25:13.641Z,215
2018-03-11T15:26:23.476Z,215
2018-03-11T15:27:33.470Z,210
2018-03-11T15:28:43.467Z,210
2018-03-11T15:29:52.936Z,215
2018-03-11T15:31:02.399Z,225
2018-03-11T15:32:12.158Z,235
2018-03-11T15:33:21.596Z,245
2018-03-11T15:34:31.102Z,255
2018-03-11T15:35:41.183Z,255
2018-03-11T15:36:51.180Z,255
2018-03-11T15:38:00.902Z,250
2018-03-11T15:39:10.960Z,245
2018-03-11T15:40:20.754Z,235
2018-03-11T15:41:30.481Z,230
2018-03-11T15:42:40.213Z,215
2018-03-11T15:43:49.944Z,205
2018-03-11T15:44:59.669Z,195
2018-03-11T15:46:08.888Z,185
2018-03-11T15:47:18.887Z,175
2018-03-11T15:48:28.618Z,160
2018-03-11T15:49:38.117Z,150
2018-03-11T15:50:47.855Z,135
2018-03-11T15:51:57.053Z,120
2018-03-11T15:53:06.789Z,105
2018-03-11T15:54:16.517Z,95
2018-03-11T15:55:26.513Z,90
2018-03-11T15:56:36.508Z,85
2018-03-11T15:57:45.969Z,80
2018-03-11T15:58:55.960Z,75
2018-03-11T16:00:05.959Z,70
2018-03-11T16:01:15.993Z,65
2018-03-11T16:02:26.004Z,65
2018-03-11T16:03:36.179Z,65
2018-03-11T16:04:46.176Z,65
2018-03-11T16:05:56.170Z,65
2018-03-11T16:07:05.639Z,70
2018-03-11T16:08:15.366Z,70
2018-03-11T16:09:25.370Z,70
2018-03-11T16:10:35.095Z,70
2018-03-11T16:11:44.285Z,70
2018-03-11T16:12:53.482Z,70
2018-03-11T16:14:02.941Z,70
2018-03-11T16:15:12.472Z,70
2018-03-11T16:16:22.208Z,70
2018-03-11T16:17:32.206Z,70
2018-03-11T16:18:41.930Z,70
2018-03-11T16:19:51.930Z,65
2018-03-11T16:21:01.655Z,65
2018-03-11T16:22:11.176Z,60
2018-03-11T16:23:20.907Z,60
2018-03-11T16:24:44.801Z,55
2018-03-11T16:25:54.802Z,50
2018-03-11T16:27:04.529Z,50
2018-03-11T16:28:14.028Z,45
2018-03-11T16:29:24.025Z,45
2018-03-11T16:30:32.949Z,45
2018-03-11T16:31:42.409Z,40